createdAt,value
2023-03-06T00:00:54.136Z,-2.45
2023-03-06T00:03:21.609Z,-2.51
2023-03-06T00:05:48.429Z,-2.55
2023-03-06T00:08:15.447Z,-2.55
2023-03-06T00:10:42.086Z,-2.58
2023-03-06T00:13:12.678Z,-2.50
2023-03-06T00:15:39.418Z,-2.50
2023-03-06T00:18:07.384Z,-2.52
2023-03-06T00:20:35.380Z,-2.46
2023-03-06T00:23:01.973Z,-2.49
2023-03-06T00:25:28.523Z,-2.45
2023-03-06T00:27:55.016Z,-2.45
2023-03-06T00:30:24.059Z,-2.49
2023-03-06T00:32:52.578Z,-2.48
2023-03-06T00:35:19.260Z,-2.47
2023-03-06T00:37:46.254Z,-2.49
2023-03-06T00:40:16.569Z,-2.51
2023-03-06T00:42:43.380Z,-2.53
2023-03-06T00:45:11.092Z,-2.52
2023-03-06T00:47:37.833Z,-2.49
2023-03-06T00:50:05.204Z,-2.49
2023-03-06T00:52:32.582Z,-2.45
2023-03-06T00:54:59.317Z,-2.43
2023-03-06T00:57:25.900Z,-2.44
2023-03-06T00:59:52.502Z,-2.41
2023-03-06T01:02:19.118Z,-2.40
2023-03-06T01:04:45.693Z,-2.45
2023-03-06T01:07:12.328Z,-2.46
2023-03-06T01:09:38.903Z,-2.44
2023-03-06T01:12:05.591Z,-2.40
2023-03-06T01:14:32.389Z,-2.39
2023-03-06T01:16:59.154Z,-2.34
2023-03-06T01:19:25.936Z,-2.32
2023-03-06T01:21:52.499Z,-2.25
2023-03-06T01:24:19.016Z,-2.20
2023-03-06T01:26:45.575Z,-2.11
2023-03-06T01:29:12.162Z,-2.07
2023-03-06T01:31:38.727Z,-2.07
2023-03-06T01:34:05.241Z,-2.04
2023-03-06T01:36:31.840Z,-2.01
2023-03-06T01:38:58.477Z,-1.95
2023-03-06T01:41:25.163Z,-2.00
2023-03-06T01:43:51.776Z,-1.96
2023-03-06T01:46:20.969Z,-1.97
2023-03-06T01:48:49.817Z,-1.94
2023-03-06T01:51:17.189Z,-1.94
2023-03-06T01:53:45.330Z,-1.92
2023-03-06T01:56:13.805Z,-1.87
2023-03-06T01:58:43.668Z,-1.81
2023-03-06T02:01:12.247Z,-1.84
2023-03-06T02:03:41.633Z,-1.84
2023-03-06T02:06:08.510Z,-1.77
2023-03-06T02:08:35.237Z,-1.82
2023-03-06T02:11:11.727Z,-1.86
2023-03-06T02:13:39.508Z,-1.85
2023-03-06T02:16:08.780Z,-1.87
2023-03-06T02:18:36.254Z,-1.83
2023-03-06T02:21:08.863Z,-1.87
2023-03-06T02:24:12.828Z,-1.84
2023-03-06T02:26:41.198Z,-1.81
2023-03-06T02:29:09.127Z,-1.84
2023-03-06T02:31:36.181Z,-1.86
2023-03-06T02:34:28.854Z,-1.87
2023-03-06T02:37:00.592Z,-1.83
2023-03-06T02:39:30.192Z,-1.86
2023-03-06T02:41:56.842Z,-1.86
2023-03-06T02:44:24.394Z,-1.82
2023-03-06T02:46:50.914Z,-1.84
2023-03-06T02:49:17.425Z,-1.84
2023-03-06T02:51:43.972Z,-1.77
2023-03-06T02:54:11.088Z,-1.79
2023-03-06T02:56:37.615Z,-1.76
2023-03-06T02:59:04.172Z,-1.78
2023-03-06T03:01:30.832Z,-1.81
2023-03-06T03:03:57.406Z,-1.79
2023-03-06T03:06:23.926Z,-1.78
2023-03-06T03:08:50.415Z,-1.78
2023-03-06T03:11:16.951Z,-1.77
2023-03-06T03:13:43.730Z,-1.75
2023-03-06T03:16:15.501Z,-1.75
2023-03-06T03:18:44.705Z,-1.73
2023-03-06T03:21:13.770Z,-1.68
2023-03-06T03:23:40.770Z,-1.66
2023-03-06T03:26:10.086Z,-1.64
2023-03-06T03:28:36.831Z,-1.63
2023-03-06T03:31:07.996Z,-1.60
2023-03-06T03:33:35.125Z,-1.60
2023-03-06T03:36:03.599Z,-1.58
2023-03-06T03:38:31.081Z,-1.59
2023-03-06T03:40:57.701Z,-1.58
2023-03-06T03:43:24.323Z,-1.60
2023-03-06T03:45:53.255Z,-1.61
2023-03-06T03:48:20.054Z,-1.63
2023-03-06T03:50:46.523Z,-1.63
2023-03-06T03:53:13.031Z,-1.63
2023-03-06T03:55:39.495Z,-1.62
2023-03-06T03:58:06.023Z,-1.61
2023-03-06T04:00:32.569Z,-1.61
2023-03-06T04:02:59.065Z,-1.62
2023-03-06T04:05:25.631Z,-1.59
2023-03-06T04:07:52.168Z,-1.60
2023-03-06T04:10:18.758Z,-1.59
2023-03-06T04:12:45.346Z,-1.54
2023-03-06T04:15:11.980Z,-1.56
2023-03-06T04:17:38.484Z,-1.55
2023-03-06T04:20:05.430Z,-1.56
2023-03-06T04:22:32.000Z,-1.56
2023-03-06T04:24:58.548Z,-1.56
2023-03-06T04:27:25.072Z,-1.48
2023-03-06T04:29:51.624Z,-1.47
2023-03-06T04:32:20.361Z,-1.45
2023-03-06T04:34:47.893Z,-1.46
2023-03-06T04:37:20.874Z,-1.45
2023-03-06T04:39:47.615Z,-1.44
2023-03-06T04:42:14.412Z,-1.40
2023-03-06T04:44:40.965Z,-1.36
2023-03-06T04:47:07.492Z,-1.32
2023-03-06T04:49:34.566Z,-1.32
2023-03-06T04:52:01.098Z,-1.30
2023-03-06T04:54:27.590Z,-1.32
2023-03-06T04:56:54.105Z,-1.35
2023-03-06T04:59:20.727Z,-1.31
2023-03-06T05:01:47.278Z,-1.33
2023-03-06T05:04:13.934Z,-1.30
2023-03-06T05:06:40.453Z,-1.27
2023-03-06T05:09:07.130Z,-1.23
2023-03-06T05:11:33.733Z,-1.12
2023-03-06T05:14:00.295Z,-1.16
2023-03-06T05:16:26.858Z,-1.12
2023-03-06T05:18:53.505Z,-1.19
2023-03-06T05:21:20.007Z,-1.16
2023-03-06T05:23:47.620Z,-1.13
2023-03-06T05:26:15.888Z,-1.19
2023-03-06T05:28:42.431Z,-1.11
2023-03-06T05:31:09.026Z,-1.18
2023-03-06T05:33:36.692Z,-1.06
2023-03-06T05:36:03.471Z,-1.04
2023-03-06T05:38:30.107Z,-1.04
2023-03-06T05:40:56.616Z,-1.02
2023-03-06T05:43:23.673Z,-1.04
2023-03-06T05:45:53.235Z,-1.03
2023-03-06T05:48:19.767Z,-0.99
2023-03-06T05:50:46.273Z,-0.95
2023-03-06T05:53:12.781Z,-0.94
2023-03-06T05:55:39.301Z,-0.88
2023-03-06T05:58:05.801Z,-0.91
2023-03-06T06:00:32.322Z,-0.88
2023-03-06T06:03:01.264Z,-0.83
2023-03-06T06:05:27.796Z,-0.73
2023-03-06T06:07:54.364Z,-0.74
2023-03-06T06:10:20.846Z,-0.72
2023-03-06T06:12:47.351Z,-0.68
2023-03-06T06:15:15.456Z,-0.66
2023-03-06T06:17:42.026Z,-0.60
2023-03-06T06:20:09.227Z,-0.53
2023-03-06T06:22:37.934Z,-0.44
2023-03-06T06:25:07.508Z,-0.34
2023-03-06T06:27:34.142Z,-0.27
2023-03-06T06:30:00.695Z,-0.21
2023-03-06T06:32:27.317Z,-0.21
2023-03-06T06:34:54.074Z,-0.10
2023-03-06T06:37:20.631Z,-0.04
2023-03-06T06:39:47.161Z,-0.03
2023-03-06T06:42:35.107Z,0.00
2023-03-06T06:45:00.171Z,0.02
2023-03-06T06:47:26.744Z,0.12
2023-03-06T06:49:55.339Z,0.10
2023-03-06T06:52:23.426Z,0.16
2023-03-06T06:54:50.796Z,0.21
2023-03-06T06:57:17.300Z,0.25
2023-03-06T06:59:43.978Z,0.29
2023-03-06T07:02:12.518Z,0.40
2023-03-06T07:04:44.318Z,0.41
2023-03-06T07:07:15.853Z,0.49
2023-03-06T07:09:42.370Z,0.47
2023-03-06T07:12:09.302Z,0.51
2023-03-06T07:14:36.029Z,0.59
2023-03-06T07:17:02.559Z,0.64
2023-03-06T07:19:29.107Z,0.72
2023-03-06T07:21:55.677Z,0.81
2023-03-06T07:24:22.213Z,0.88
2023-03-06T07:26:48.831Z,0.95
2023-03-06T07:29:15.479Z,1.10
2023-03-06T07:31:42.229Z,1.06
2023-03-06T07:34:13.100Z,1.10
2023-03-06T07:36:43.273Z,1.18
2023-03-06T07:39:10.194Z,1.20
2023-03-06T07:41:36.829Z,1.25
2023-03-06T07:44:03.516Z,1.34
2023-03-06T07:46:30.063Z,1.42
2023-03-06T07:48:56.912Z,1.52
2023-03-06T07:51:23.447Z,1.61
2023-03-06T07:53:50.565Z,1.60
2023-03-06T07:56:17.594Z,1.76
2023-03-06T07:58:45.862Z,1.81
2023-03-06T08:01:15.724Z,2.10
2023-03-06T08:03:43.053Z,2.09
2023-03-06T08:06:15.682Z,2.13
2023-03-06T08:08:44.516Z,2.33
2023-03-06T08:11:13.009Z,2.30
2023-03-06T08:13:40.092Z,2.53
2023-03-06T08:16:07.086Z,2.79
2023-03-06T08:18:33.901Z,2.81
2023-03-06T08:21:15.412Z,2.79
2023-03-06T08:23:42.348Z,2.86
2023-03-06T08:26:12.818Z,2.98
2023-03-06T08:28:39.912Z,2.96
2023-03-06T08:31:21.048Z,2.83
2023-03-06T08:33:47.810Z,2.98
2023-03-06T08:36:14.343Z,3.00
2023-03-06T08:38:40.862Z,3.01
2023-03-06T08:41:07.423Z,2.91
2023-03-06T08:43:35.821Z,2.74
2023-03-06T08:46:03.250Z,2.59
2023-03-06T08:48:29.844Z,2.81
2023-03-06T08:50:56.336Z,3.28
2023-03-06T08:53:36.627Z,3.26
2023-03-06T08:56:14.965Z,3.11
2023-03-06T08:58:41.479Z,3.25
2023-03-06T09:01:16.953Z,3.43
2023-03-06T09:03:43.519Z,3.23
2023-03-06T09:06:10.087Z,3.27
2023-03-06T09:08:36.610Z,3.50
2023-03-06T09:11:03.262Z,3.57
2023-03-06T09:13:29.842Z,3.76
2023-03-06T09:15:56.380Z,3.95
2023-03-06T09:18:22.866Z,4.24
2023-03-06T09:20:49.392Z,4.16
2023-03-06T09:23:15.907Z,3.99
2023-03-06T09:25:42.534Z,3.94
2023-03-06T09:28:11.742Z,4.37
2023-03-06T09:30:41.459Z,4.55
2023-03-06T09:33:08.277Z,4.64
2023-03-06T09:35:35.150Z,4.19
2023-03-06T09:38:01.730Z,4.42
2023-03-06T09:40:45.627Z,4.46
2023-03-06T09:43:29.118Z,4.27
2023-03-06T09:45:57.206Z,4.18
2023-03-06T09:48:41.361Z,4.28
2023-03-06T09:51:15.564Z,4.70
2023-03-06T09:54:14.152Z,4.78
2023-03-06T09:56:47.273Z,5.08
2023-03-06T09:59:20.803Z,5.21
2023-03-06T10:02:10.292Z,5.38
2023-03-06T10:04:41.411Z,5.50
2023-03-06T10:07:38.552Z,4.95
2023-03-06T10:10:06.837Z,4.87
2023-03-06T10:12:40.840Z,4.97
2023-03-06T10:15:21.185Z,5.10
2023-03-06T10:17:48.192Z,4.98
2023-03-06T10:20:21.835Z,4.56
2023-03-06T10:23:15.887Z,4.54
2023-03-06T10:25:51.702Z,4.74
2023-03-06T10:28:41.074Z,4.76
2023-03-06T10:31:15.504Z,4.67
2023-03-06T10:33:53.295Z,4.74
2023-03-06T10:36:21.634Z,5.11
2023-03-06T10:38:49.004Z,5.25
2023-03-06T10:41:38.377Z,5.07
2023-03-06T10:44:04.882Z,5.25
2023-03-06T10:46:43.431Z,5.41
2023-03-06T10:49:37.079Z,5.21
2023-03-06T10:52:14.276Z,5.39
2023-03-06T10:54:43.899Z,5.74
2023-03-06T10:57:31.779Z,5.76
2023-03-06T11:00:01.498Z,5.79
2023-03-06T11:02:36.457Z,5.69
2023-03-06T11:05:05.569Z,5.10
2023-03-06T11:07:34.507Z,5.22
2023-03-06T11:10:23.389Z,5.06
2023-03-06T11:12:58.611Z,5.01
2023-03-06T11:15:27.889Z,4.91
2023-03-06T11:18:08.049Z,4.82
2023-03-06T11:20:54.596Z,4.80
2023-03-06T11:23:29.828Z,4.63
2023-03-06T11:26:26.288Z,4.39
2023-03-06T11:29:06.677Z,4.47
2023-03-06T11:31:37.955Z,4.25
2023-03-06T11:34:42.544Z,4.26
2023-03-06T11:37:23.268Z,4.19
2023-03-06T11:40:00.391Z,4.55
2023-03-06T11:42:31.550Z,4.54
2023-03-06T11:45:25.910Z,4.76
2023-03-06T11:48:03.314Z,4.50
2023-03-06T11:50:35.659Z,4.62
2023-03-06T11:53:05.070Z,4.47
2023-03-06T11:55:58.805Z,4.48
2023-03-06T11:58:44.024Z,4.67
2023-03-06T12:01:27.145Z,4.88
2023-03-06T12:04:25.895Z,4.99
2023-03-06T12:07:30.597Z,4.88
2023-03-06T12:13:12.343Z,5.08
2023-03-06T12:16:08.203Z,5.42
2023-03-06T12:18:52.733Z,5.54
2023-03-06T12:21:42.575Z,5.29
2023-03-06T12:24:22.609Z,5.03
2023-03-06T12:27:13.292Z,4.98
2023-03-06T12:29:48.929Z,5.14
2023-03-06T12:32:35.267Z,4.98
2023-03-06T12:35:14.056Z,4.88
2023-03-06T12:37:58.876Z,4.67
2023-03-06T12:41:08.847Z,4.42
2023-03-06T12:43:50.260Z,4.24
2023-03-06T12:46:21.701Z,3.85
2023-03-06T12:48:57.970Z,3.81
2023-03-06T12:51:24.683Z,3.70
2023-03-06T12:53:51.600Z,3.26
2023-03-06T12:56:19.647Z,2.97
2023-03-06T12:58:57.180Z,2.85
2023-03-06T13:01:48.645Z,2.89
2023-03-06T13:04:31.159Z,2.67
2023-03-06T13:07:03.513Z,2.63
2023-03-06T13:09:48.781Z,2.63
2023-03-06T13:12:26.079Z,2.52
2023-03-06T13:14:57.886Z,2.27
2023-03-06T13:17:24.317Z,2.22
2023-03-06T13:20:15.616Z,2.21
2023-03-06T13:22:47.185Z,2.06
2023-03-06T13:25:19.572Z,1.86
2023-03-06T13:27:54.990Z,1.89
2023-03-06T13:30:23.142Z,1.96
2023-03-06T13:32:52.846Z,1.89
2023-03-06T13:35:42.237Z,1.71
2023-03-06T13:38:39.131Z,1.69
2023-03-06T13:41:21.039Z,1.70
2023-03-06T13:43:48.385Z,1.82
2023-03-06T13:46:35.655Z,1.81
2023-03-06T13:49:08.386Z,1.59
2023-03-06T13:51:52.198Z,1.64
2023-03-06T13:54:43.406Z,1.64
2023-03-06T13:57:31.376Z,1.51
2023-03-06T14:00:35.440Z,1.51
2023-03-06T14:03:27.778Z,1.53
2023-03-06T14:05:54.451Z,1.48
2023-03-06T14:08:24.563Z,1.32
2023-03-06T14:11:19.256Z,1.26
2023-03-06T14:13:52.780Z,1.42
2023-03-06T14:16:22.897Z,1.42
2023-03-06T14:18:51.508Z,1.28
2023-03-06T14:21:54.691Z,1.33
2023-03-06T14:24:29.972Z,1.39
2023-03-06T14:26:56.642Z,1.45
2023-03-06T14:29:29.002Z,1.70
2023-03-06T14:31:58.304Z,1.90
2023-03-06T14:34:28.185Z,1.65
2023-03-06T14:37:07.686Z,1.69
2023-03-06T14:39:37.621Z,1.71
2023-03-06T14:42:14.653Z,2.00
2023-03-06T14:44:41.146Z,2.25
2023-03-06T14:47:19.850Z,2.11
2023-03-06T14:49:46.409Z,2.05
2023-03-06T14:52:19.444Z,2.16
2023-03-06T14:54:46.710Z,2.23
2023-03-06T14:57:17.999Z,2.34
2023-03-06T14:59:53.773Z,2.35
2023-03-06T15:02:25.055Z,2.08
2023-03-06T15:04:55.279Z,2.17
2023-03-06T15:07:25.868Z,2.21
2023-03-06T15:09:55.322Z,2.01
2023-03-06T15:12:24.632Z,2.21
2023-03-06T15:15:01.768Z,2.29
2023-03-06T15:17:32.050Z,2.33
2023-03-06T15:20:00.908Z,2.23
2023-03-06T15:22:38.694Z,2.16
2023-03-06T15:25:30.211Z,2.01
2023-03-06T15:28:00.156Z,2.12
2023-03-06T15:30:30.786Z,2.08
2023-03-06T15:33:22.124Z,2.08
2023-03-06T15:35:55.450Z,2.04
2023-03-06T15:38:35.086Z,2.02
2023-03-06T15:41:03.278Z,1.85
2023-03-06T15:43:35.350Z,1.83
2023-03-06T15:46:02.216Z,1.80
2023-03-06T15:48:29.022Z,1.80
2023-03-06T15:50:55.649Z,1.78
2023-03-06T15:53:22.260Z,1.76
2023-03-06T15:55:50.173Z,1.72
2023-03-06T15:58:20.517Z,1.73
2023-03-06T16:00:47.230Z,1.69
2023-03-06T16:03:13.773Z,1.66
2023-03-06T16:05:40.434Z,1.61
2023-03-06T16:08:07.565Z,1.60
2023-03-06T16:10:39.341Z,1.52
2023-03-06T16:13:16.554Z,1.48
2023-03-06T16:15:50.473Z,1.40
2023-03-06T16:18:17.711Z,1.37
2023-03-06T16:20:44.606Z,1.30
2023-03-06T16:23:11.187Z,1.22
2023-03-06T16:25:40.523Z,1.14
2023-03-06T16:28:14.255Z,1.12
2023-03-06T16:30:43.166Z,1.11
2023-03-06T16:33:12.115Z,1.07
2023-03-06T16:35:39.935Z,1.06
2023-03-06T16:38:06.651Z,1.04
2023-03-06T16:40:38.042Z,1.07
2023-03-06T16:43:05.546Z,1.10
2023-03-06T16:45:36.479Z,1.10
2023-03-06T16:48:03.200Z,1.10
2023-03-06T16:50:33.021Z,1.13
2023-03-06T16:53:00.014Z,1.12
2023-03-06T16:55:27.443Z,1.16
2023-03-06T16:57:54.571Z,1.18
2023-03-06T17:00:22.325Z,1.18
2023-03-06T17:02:49.115Z,1.18
2023-03-06T17:05:15.779Z,1.19
2023-03-06T17:07:42.567Z,1.20
2023-03-06T17:10:12.761Z,1.20
2023-03-06T17:12:39.404Z,1.21
2023-03-06T17:15:07.483Z,1.21
2023-03-06T17:17:34.372Z,1.22
2023-03-06T17:20:00.934Z,1.21
2023-03-06T17:22:27.944Z,1.26
2023-03-06T17:24:54.854Z,1.22
2023-03-06T17:27:22.825Z,1.14
2023-03-06T17:29:49.343Z,1.12
2023-03-06T17:32:15.826Z,1.09
2023-03-06T17:34:42.420Z,1.08
2023-03-06T17:37:08.923Z,1.00
2023-03-06T17:39:37.602Z,0.99
2023-03-06T17:42:05.690Z,0.97
2023-03-06T17:44:33.556Z,0.95
2023-03-06T17:47:00.213Z,0.80
2023-03-06T17:49:27.057Z,0.73
2023-03-06T17:51:55.221Z,0.75
2023-03-06T17:54:22.055Z,0.71
2023-03-06T17:56:49.753Z,0.68
2023-03-06T17:59:16.309Z,0.72
2023-03-06T18:01:43.537Z,0.70
2023-03-06T18:04:11.052Z,0.66
2023-03-06T18:06:37.829Z,0.57
2023-03-06T18:09:05.090Z,0.55
2023-03-06T18:11:32.697Z,0.49
2023-03-06T18:13:59.579Z,0.53
2023-03-06T18:16:26.644Z,0.60
2023-03-06T18:18:54.708Z,0.57
2023-03-06T18:21:21.781Z,0.51
2023-03-06T18:23:48.426Z,0.50
2023-03-06T18:26:26.727Z,0.45
2023-03-06T18:28:55.840Z,0.45
2023-03-06T18:31:27.651Z,0.49
2023-03-06T18:34:00.552Z,0.47
2023-03-06T18:36:29.725Z,0.48
2023-03-06T18:38:56.956Z,0.47
2023-03-06T18:41:23.615Z,0.44
2023-03-06T18:43:58.596Z,0.42
2023-03-06T18:46:26.161Z,0.36
2023-03-06T18:48:52.683Z,0.32
2023-03-06T18:51:20.210Z,0.23
2023-03-06T18:53:47.327Z,0.14
2023-03-06T18:56:19.343Z,0.08
2023-03-06T18:58:46.183Z,0.02
2023-03-06T19:01:13.279Z,-0.05
2023-03-06T19:03:39.842Z,-0.13
2023-03-06T19:06:12.683Z,-0.17
2023-03-06T19:08:40.033Z,-0.19
2023-03-06T19:11:09.485Z,-0.17
2023-03-06T19:13:37.459Z,-0.24
2023-03-06T19:16:04.845Z,-0.28
2023-03-06T19:18:31.592Z,-0.25
2023-03-06T19:21:15.474Z,-0.28
2023-03-06T19:23:42.625Z,-0.37
2023-03-06T19:26:09.505Z,-0.40
2023-03-06T19:28:41.123Z,-0.42
2023-03-06T19:31:11.505Z,-0.46
2023-03-06T19:33:38.167Z,-0.54
2023-03-06T19:36:06.791Z,-0.55
2023-03-06T19:38:33.961Z,-0.59
2023-03-06T19:41:05.340Z,-0.62
2023-03-06T19:43:32.033Z,-0.63
2023-03-06T19:45:58.628Z,-0.64
2023-03-06T19:48:25.084Z,-0.68
2023-03-06T19:50:51.649Z,-0.70
2023-03-06T19:53:18.264Z,-0.71
2023-03-06T19:55:44.837Z,-0.73
2023-03-06T19:58:12.550Z,-0.76
2023-03-06T20:00:39.332Z,-0.79
2023-03-06T20:03:05.849Z,-0.78
2023-03-06T20:05:32.564Z,-0.78
2023-03-06T20:07:59.152Z,-0.78
2023-03-06T20:10:25.601Z,-0.79
2023-03-06T20:12:52.168Z,-0.77
2023-03-06T20:15:20.421Z,-0.74
2023-03-06T20:17:46.944Z,-0.70
2023-03-06T20:20:14.457Z,-0.68
2023-03-06T20:22:41.256Z,-0.66
2023-03-06T20:25:08.088Z,-0.69
2023-03-06T20:27:34.600Z,-0.68
2023-03-06T20:30:01.193Z,-0.66
2023-03-06T20:32:27.738Z,-0.66
2023-03-06T20:34:54.266Z,-0.64
2023-03-06T20:37:20.900Z,-0.60
2023-03-06T20:39:47.983Z,-0.58
2023-03-06T20:42:14.709Z,-0.54
2023-03-06T20:44:41.305Z,-0.55
2023-03-06T20:47:08.995Z,-0.52
2023-03-06T20:49:36.687Z,-0.48
2023-03-06T20:52:03.614Z,-0.49
2023-03-06T20:54:30.313Z,-0.54
2023-03-06T20:56:56.869Z,-0.62
2023-03-06T20:59:23.904Z,-0.67
2023-03-06T21:01:50.513Z,-0.67
2023-03-06T21:04:17.394Z,-0.66
2023-03-06T21:06:46.867Z,-0.69
2023-03-06T21:09:15.920Z,-0.71
2023-03-06T21:11:42.882Z,-0.72
2023-03-06T21:14:09.699Z,-0.79
2023-03-06T21:16:36.490Z,-0.82
2023-03-06T21:19:03.279Z,-0.86
2023-03-06T21:21:32.932Z,-0.91
2023-03-06T21:24:01.475Z,-0.90
2023-03-06T21:26:30.659Z,-0.91
2023-03-06T21:28:58.990Z,-0.91
2023-03-06T21:31:27.112Z,-0.93
2023-03-06T21:33:54.124Z,-0.95
2023-03-06T21:36:21.979Z,-0.96
2023-03-06T21:38:50.439Z,-0.94
2023-03-06T21:41:20.194Z,-0.94
2023-03-06T21:43:46.719Z,-0.95
2023-03-06T21:46:13.642Z,-0.97
2023-03-06T21:48:40.498Z,-0.95
2023-03-06T21:51:13.143Z,-0.95
2023-03-06T21:53:43.167Z,-0.95
2023-03-06T21:56:11.402Z,-0.94
2023-03-06T21:58:38.274Z,-0.96
2023-03-06T22:01:13.015Z,-0.98
2023-03-06T22:03:40.043Z,-0.95
2023-03-06T22:06:13.216Z,-0.95
2023-03-06T22:08:40.430Z,-0.92
2023-03-06T22:11:09.586Z,-0.92
2023-03-06T22:13:36.876Z,-0.91
2023-03-06T22:16:04.078Z,-0.91
2023-03-06T22:18:30.676Z,-0.90
2023-03-06T22:20:57.251Z,-0.92
2023-03-06T22:23:23.932Z,-0.89
2023-03-06T22:25:50.449Z,-0.86
2023-03-06T22:28:18.637Z,-0.84
2023-03-06T22:30:46.008Z,-0.83
2023-03-06T22:33:12.549Z,-0.87
2023-03-06T22:35:39.087Z,-0.84
2023-03-06T22:38:05.589Z,-0.87
2023-03-06T22:40:33.114Z,-0.86
2023-03-06T22:42:59.641Z,-0.86
2023-03-06T22:45:26.202Z,-0.84
2023-03-06T22:47:57.123Z,-0.84
2023-03-06T22:50:28.853Z,-0.85
2023-03-06T22:52:55.365Z,-0.84
2023-03-06T22:55:21.891Z,-0.82
2023-03-06T22:57:48.392Z,-0.84
2023-03-06T23:00:15.178Z,-0.83
2023-03-06T23:02:41.739Z,-0.83
2023-03-06T23:05:08.461Z,-0.84
2023-03-06T23:07:34.938Z,-0.85
2023-03-06T23:10:01.475Z,-0.87
2023-03-06T23:12:27.977Z,-0.86
2023-03-06T23:14:54.569Z,-0.86
2023-03-06T23:17:21.601Z,-0.87
2023-03-06T23:19:49.594Z,-0.97
2023-03-06T23:22:16.112Z,-0.96
2023-03-06T23:24:42.678Z,-0.95
2023-03-06T23:27:09.256Z,-0.95
2023-03-06T23:29:35.779Z,-0.95
2023-03-06T23:32:02.331Z,-0.95
2023-03-06T23:34:28.866Z,-0.97
2023-03-06T23:36:55.374Z,-0.97
2023-03-06T23:39:21.867Z,-0.98
2023-03-06T23:41:48.396Z,-1.05
2023-03-06T23:44:14.899Z,-1.04
2023-03-06T23:46:41.446Z,-1.06
2023-03-06T23:49:08.321Z,-1.11
2023-03-06T23:51:34.854Z,-1.11
2023-03-06T23:54:01.407Z,-1.11
2023-03-06T23:56:28.946Z,-1.12
2023-03-06T23:58:55.586Z,-1.19
